Amenia, North Dakota
Current Conditions -  °F | °C
As of 3:53 PM on Friday 19 Dec 2014 (Local Time) from KFAR Reporting Station
Haze Haze  
Wind Chill: 21°   Ceiling: 800
Heat Index: 31°   Visibility: 3mi
Dew Point: 28°   Wind: 14mph
Humidity: 89%   Direction: 160°SSE
Pressure: 30.02"   Gusts: NA
Location:  47°N, 97.22°W
Report Text: KFAR 192153Z 16012KT 3SM BR BKN008 OVC015 M01/M02 A3002 RMK AO2 SLP180 T10061022
Loading
Personal Weather Stations






























Interactive Weather Map New forecast layout! Learn more

10-Day Weather Forecast

Advertisements
Track Severe Weather on mobile